sensor_id;sensor_type;location;lat;lon;timestamp;temperature;humidity
56240;DHT22;42154;51.992;5.896;2023-09-18T00:01:14;19.50;99.90
56240;DHT22;42154;51.992;5.896;2023-09-18T00:03:40;19.50;99.90
56240;DHT22;42154;51.992;5.896;2023-09-18T00:06:06;19.50;99.90
56240;DHT22;42154;51.992;5.896;2023-09-18T00:08:31;19.60;99.90
56240;DHT22;42154;51.992;5.896;2023-09-18T00:10:57;19.60;99.90
56240;DHT22;42154;51.992;5.896;2023-09-18T00:13:23;19.50;99.90
56240;DHT22;42154;51.992;5.896;2023-09-18T00:15:49;19.50;99.90
56240;DHT22;42154;51.992;5.896;2023-09-18T00:18:18;19.60;99.90
56240;DHT22;42154;51.992;5.896;2023-09-18T00:20:44;19.60;99.90
56240;DHT22;42154;51.992;5.896;2023-09-18T00:23:11;19.60;99.90
56240;DHT22;42154;51.992;5.896;2023-09-18T00:25:36;19.60;99.90
56240;DHT22;42154;51.992;5.896;2023-09-18T00:28:03;19.60;99.90
56240;DHT22;42154;51.992;5.896;2023-09-18T00:30:28;19.60;99.90
56240;DHT22;42154;51.992;5.896;2023-09-18T00:32:54;19.60;99.90
56240;DHT22;42154;51.992;5.896;2023-09-18T00:35:20;19.60;99.90
56240;DHT22;42154;51.992;5.896;2023-09-18T00:37:47;19.60;99.90
56240;DHT22;42154;51.992;5.896;2023-09-18T00:40:13;19.60;99.90
56240;DHT22;42154;51.992;5.896;2023-09-18T00:42:39;19.60;99.90
56240;DHT22;42154;51.992;5.896;2023-09-18T00:45:05;19.60;99.90
56240;DHT22;42154;51.992;5.896;2023-09-18T00:47:31;19.60;99.90
56240;DHT22;42154;51.992;5.896;2023-09-18T00:49:57;19.60;99.90
56240;DHT22;42154;51.992;5.896;2023-09-18T00:52:23;19.60;99.90
56240;DHT22;42154;51.992;5.896;2023-09-18T00:54:51;19.60;99.90
56240;DHT22;42154;51.992;5.896;2023-09-18T00:57:17;19.60;99.90
56240;DHT22;42154;51.992;5.896;2023-09-18T00:59:44;19.60;99.90
56240;DHT22;42154;51.992;5.896;2023-09-18T01:02:10;19.60;99.90
56240;DHT22;42154;51.992;5.896;2023-09-18T01:04:37;19.60;99.90
56240;DHT22;42154;51.992;5.896;2023-09-18T01:07:03;19.60;99.90
56240;DHT22;42154;51.992;5.896;2023-09-18T01:09:33;19.60;99.90
56240;DHT22;42154;51.992;5.896;2023-09-18T01:12:23;19.60;99.90
56240;DHT22;42154;51.992;5.896;2023-09-18T01:17:40;19.60;99.90
56240;DHT22;42154;51.992;5.896;2023-09-18T01:20:11;19.50;99.90
56240;DHT22;42154;51.992;5.896;2023-09-18T01:22:36;19.50;99.90
56240;DHT22;42154;51.992;5.896;2023-09-18T01:25:02;19.50;99.90
56240;DHT22;42154;51.992;5.896;2023-09-18T01:27:28;19.50;99.90
56240;DHT22;42154;51.992;5.896;2023-09-18T01:29:54;19.50;99.90
56240;DHT22;42154;51.992;5.896;2023-09-18T01:32:21;19.50;99.90
56240;DHT22;42154;51.992;5.896;2023-09-18T01:34:52;19.50;99.90
56240;DHT22;42154;51.992;5.896;2023-09-18T01:37:21;19.50;99.90
56240;DHT22;42154;51.992;5.896;2023-09-18T01:39:50;19.50;99.90
56240;DHT22;42154;51.992;5.896;2023-09-18T01:42:16;19.60;99.90
56240;DHT22;42154;51.992;5.896;2023-09-18T01:44:43;19.50;99.90
56240;DHT22;42154;51.992;5.896;2023-09-18T01:47:12;19.50;99.90
56240;DHT22;42154;51.992;5.896;2023-09-18T01:49:39;19.60;99.90
56240;DHT22;42154;51.992;5.896;2023-09-18T01:52:07;19.50;99.90
56240;DHT22;42154;51.992;5.896;2023-09-18T01:54:34;19.50;99.90
56240;DHT22;42154;51.992;5.896;2023-09-18T01:57:00;19.50;99.90
56240;DHT22;42154;51.992;5.896;2023-09-18T01:59:27;19.60;99.90
56240;DHT22;42154;51.992;5.896;2023-09-18T02:01:53;19.60;99.90
56240;DHT22;42154;51.992;5.896;2023-09-18T02:04:19;19.50;99.90
56240;DHT22;42154;51.992;5.896;2023-09-18T02:06:47;19.50;99.90
56240;DHT22;42154;51.992;5.896;2023-09-18T02:09:13;19.60;99.90
56240;DHT22;42154;51.992;5.896;2023-09-18T02:11:41;19.60;99.90
56240;DHT22;42154;51.992;5.896;2023-09-18T02:14:07;19.50;99.90
56240;DHT22;42154;51.992;5.896;2023-09-18T02:16:36;19.60;99.90
56240;DHT22;42154;51.992;5.896;2023-09-18T02:19:03;19.60;99.90
56240;DHT22;42154;51.992;5.896;2023-09-18T02:21:30;19.60;99.90
56240;DHT22;42154;51.992;5.896;2023-09-18T02:23:56;19.60;99.90
56240;DHT22;42154;51.992;5.896;2023-09-18T02:26:23;19.60;99.90
56240;DHT22;42154;51.992;5.896;2023-09-18T02:28:51;19.60;99.90
56240;DHT22;42154;51.992;5.896;2023-09-18T02:31:17;19.60;99.90
56240;DHT22;42154;51.992;5.896;2023-09-18T02:33:42;19.60;99.90
56240;DHT22;42154;51.992;5.896;2023-09-18T02:36:09;19.60;99.90
56240;DHT22;42154;51.992;5.896;2023-09-18T02:38:34;19.60;99.90
56240;DHT22;42154;51.992;5.896;2023-09-18T02:41:01;19.60;99.90
56240;DHT22;42154;51.992;5.896;2023-09-18T02:43:26;19.60;99.90
56240;DHT22;42154;51.992;5.896;2023-09-18T02:45:52;19.70;99.90
56240;DHT22;42154;51.992;5.896;2023-09-18T02:48:18;19.70;99.90
56240;DHT22;42154;51.992;5.896;2023-09-18T02:50:44;19.70;99.90
56240;DHT22;42154;51.992;5.896;2023-09-18T02:53:19;19.60;99.90
56240;DHT22;42154;51.992;5.896;2023-09-18T02:55:52;19.70;99.90
56240;DHT22;42154;51.992;5.896;2023-09-18T02:58:19;19.70;99.90
56240;DHT22;42154;51.992;5.896;2023-09-18T03:00:46;19.70;99.90
56240;DHT22;42154;51.992;5.896;2023-09-18T03:03:13;19.70;99.90
56240;DHT22;42154;51.992;5.896;2023-09-18T03:05:40;19.70;99.90
56240;DHT22;42154;51.992;5.896;2023-09-18T03:08:07;19.70;99.90
56240;DHT22;42154;51.992;5.896;2023-09-18T03:10:39;19.70;99.90
56240;DHT22;42154;51.992;5.896;2023-09-18T03:13:06;19.70;99.90
56240;DHT22;42154;51.992;5.896;2023-09-18T03:15:32;19.70;99.90
56240;DHT22;42154;51.992;5.896;2023-09-18T03:17:59;19.70;99.90
56240;DHT22;42154;51.992;5.896;2023-09-18T03:20:27;19.70;99.90
56240;DHT22;42154;51.992;5.896;2023-09-18T03:22:56;19.70;99.90
56240;DHT22;42154;51.992;5.896;2023-09-18T03:25:23;19.60;99.90
56240;DHT22;42154;51.992;5.896;2023-09-18T03:27:51;19.60;99.90
56240;DHT22;42154;51.992;5.896;2023-09-18T03:30:18;19.70;99.90
56240;DHT22;42154;51.992;5.896;2023-09-18T03:32:44;19.70;99.90
56240;DHT22;42154;51.992;5.896;2023-09-18T03:35:11;19.70;99.90
56240;DHT22;42154;51.992;5.896;2023-09-18T03:40:11;19.80;99.90
56240;DHT22;42154;51.992;5.896;2023-09-18T03:42:37;19.80;99.90
56240;DHT22;42154;51.992;5.896;2023-09-18T03:45:05;19.80;99.90
56240;DHT22;42154;51.992;5.896;2023-09-18T03:47:32;19.80;99.90
56240;DHT22;42154;51.992;5.896;2023-09-18T03:49:58;19.80;99.90
56240;DHT22;42154;51.992;5.896;2023-09-18T03:52:24;19.80;99.90
56240;DHT22;42154;51.992;5.896;2023-09-18T03:54:51;19.80;99.90
56240;DHT22;42154;51.992;5.896;2023-09-18T03:57:16;19.80;99.90
56240;DHT22;42154;51.992;5.896;2023-09-18T03:59:42;19.80;99.90
56240;DHT22;42154;51.992;5.896;2023-09-18T04:02:08;19.80;99.90
56240;DHT22;42154;51.992;5.896;2023-09-18T04:04:33;19.90;99.90
56240;DHT22;42154;51.992;5.896;2023-09-18T04:06:59;19.80;99.90
56240;DHT22;42154;51.992;5.896;2023-09-18T04:09:25;19.90;99.90
56240;DHT22;42154;51.992;5.896;2023-09-18T04:11:51;19.80;99.90
56240;DHT22;42154;51.992;5.896;2023-09-18T04:14:17;19.80;99.90
56240;DHT22;42154;51.992;5.896;2023-09-18T04:16:43;19.70;99.90
56240;DHT22;42154;51.992;5.896;2023-09-18T04:19:09;19.70;99.90
56240;DHT22;42154;51.992;5.896;2023-09-18T04:21:36;19.70;99.90
56240;DHT22;42154;51.992;5.896;2023-09-18T04:24:01;19.70;99.90
56240;DHT22;42154;51.992;5.896;2023-09-18T04:26:28;19.70;99.90
56240;DHT22;42154;51.992;5.896;2023-09-18T04:28:57;19.70;99.90
56240;DHT22;42154;51.992;5.896;2023-09-18T04:31:24;19.70;99.90
56240;DHT22;42154;51.992;5.896;2023-09-18T04:33:50;19.70;99.90
56240;DHT22;42154;51.992;5.896;2023-09-18T04:36:16;19.60;99.90
56240;DHT22;42154;51.992;5.896;2023-09-18T04:38:41;19.60;99.90
56240;DHT22;42154;51.992;5.896;2023-09-18T04:41:07;19.60;99.90
56240;DHT22;42154;51.992;5.896;2023-09-18T04:43:36;19.60;99.90
56240;DHT22;42154;51.992;5.896;2023-09-18T04:46:04;19.60;99.90
56240;DHT22;42154;51.992;5.896;2023-09-18T04:48:33;19.60;99.90
56240;DHT22;42154;51.992;5.896;2023-09-18T04:50:59;19.60;99.90
56240;DHT22;42154;51.992;5.896;2023-09-18T04:53:30;19.50;99.90
56240;DHT22;42154;51.992;5.896;2023-09-18T04:55:56;19.60;99.90
56240;DHT22;42154;51.992;5.896;2023-09-18T04:58:22;19.50;99.90
56240;DHT22;42154;51.992;5.896;2023-09-18T05:00:58;19.50;99.90
56240;DHT22;42154;51.992;5.896;2023-09-18T05:03:25;19.60;99.90
56240;DHT22;42154;51.992;5.896;2023-09-18T05:05:55;19.60;99.90
56240;DHT22;42154;51.992;5.896;2023-09-18T05:08:20;19.70;99.90
56240;DHT22;42154;51.992;5.896;2023-09-18T05:10:46;19.70;99.90
56240;DHT22;42154;51.992;5.896;2023-09-18T05:13:13;19.80;99.90
56240;DHT22;42154;51.992;5.896;2023-09-18T05:15:38;19.80;99.90
56240;DHT22;42154;51.992;5.896;2023-09-18T05:18:04;19.80;99.90
56240;DHT22;42154;51.992;5.896;2023-09-18T05:20:31;19.90;99.90
56240;DHT22;42154;51.992;5.896;2023-09-18T05:22:58;19.90;99.90
56240;DHT22;42154;51.992;5.896;2023-09-18T05:25:27;19.90;99.90
56240;DHT22;42154;51.992;5.896;2023-09-18T05:28:00;19.90;99.90
56240;DHT22;42154;51.992;5.896;2023-09-18T05:30:30;20.00;99.90
56240;DHT22;42154;51.992;5.896;2023-09-18T05:32:58;20.00;99.90
56240;DHT22;42154;51.992;5.896;2023-09-18T05:35:40;20.00;99.90
56240;DHT22;42154;51.992;5.896;2023-09-18T05:38:08;20.00;99.90
56240;DHT22;42154;51.992;5.896;2023-09-18T05:40:35;20.00;99.90
56240;DHT22;42154;51.992;5.896;2023-09-18T05:43:01;20.00;99.90
56240;DHT22;42154;51.992;5.896;2023-09-18T05:45:27;20.00;99.90
56240;DHT22;42154;51.992;5.896;2023-09-18T05:47:52;20.00;99.90
56240;DHT22;42154;51.992;5.896;2023-09-18T05:50:44;20.00;99.90
56240;DHT22;42154;51.992;5.896;2023-09-18T05:53:10;20.00;99.90
56240;DHT22;42154;51.992;5.896;2023-09-18T05:55:36;20.00;99.90
56240;DHT22;42154;51.992;5.896;2023-09-18T05:58:02;20.00;99.90
56240;DHT22;42154;51.992;5.896;2023-09-18T06:00:29;20.00;99.90
56240;DHT22;42154;51.992;5.896;2023-09-18T06:02:56;20.00;99.90
56240;DHT22;42154;51.992;5.896;2023-09-18T06:05:22;20.00;99.90
56240;DHT22;42154;51.992;5.896;2023-09-18T06:07:48;20.00;99.90
56240;DHT22;42154;51.992;5.896;2023-09-18T06:10:14;20.00;99.90
56240;DHT22;42154;51.992;5.896;2023-09-18T06:12:40;20.00;99.90
56240;DHT22;42154;51.992;5.896;2023-09-18T06:15:09;20.00;99.90
56240;DHT22;42154;51.992;5.896;2023-09-18T06:17:40;20.10;99.90
56240;DHT22;42154;51.992;5.896;2023-09-18T06:20:07;20.00;99.90
56240;DHT22;42154;51.992;5.896;2023-09-18T06:22:35;20.10;99.90
56240;DHT22;42154;51.992;5.896;2023-09-18T06:25:01;20.10;99.90
56240;DHT22;42154;51.992;5.896;2023-09-18T06:27:27;20.10;99.90
56240;DHT22;42154;51.992;5.896;2023-09-18T06:29:52;20.10;99.90
56240;DHT22;42154;51.992;5.896;2023-09-18T06:32:18;20.10;99.90
56240;DHT22;42154;51.992;5.896;2023-09-18T06:34:44;20.20;99.90
56240;DHT22;42154;51.992;5.896;2023-09-18T06:37:10;20.20;99.90
56240;DHT22;42154;51.992;5.896;2023-09-18T06:39:38;20.30;99.90
56240;DHT22;42154;51.992;5.896;2023-09-18T06:42:04;20.30;99.90
56240;DHT22;42154;51.992;5.896;2023-09-18T06:44:30;20.30;99.90
56240;DHT22;42154;51.992;5.896;2023-09-18T06:46:56;20.30;99.90
56240;DHT22;42154;51.992;5.896;2023-09-18T06:49:21;20.30;99.90
56240;DHT22;42154;51.992;5.896;2023-09-18T06:51:47;20.30;99.90
56240;DHT22;42154;51.992;5.896;2023-09-18T06:54:13;20.30;99.90
56240;DHT22;42154;51.992;5.896;2023-09-18T06:56:39;20.30;99.90
56240;DHT22;42154;51.992;5.896;2023-09-18T06:59:04;20.30;99.90
56240;DHT22;42154;51.992;5.896;2023-09-18T07:01:30;20.30;99.90
56240;DHT22;42154;51.992;5.896;2023-09-18T07:03:57;20.40;99.90
56240;DHT22;42154;51.992;5.896;2023-09-18T07:06:24;20.40;99.90
56240;DHT22;42154;51.992;5.896;2023-09-18T07:08:50;20.40;99.90
56240;DHT22;42154;51.992;5.896;2023-09-18T07:11:17;20.40;99.90
56240;DHT22;42154;51.992;5.896;2023-09-18T07:13:43;20.40;99.90
56240;DHT22;42154;51.992;5.896;2023-09-18T07:16:09;20.50;99.90
56240;DHT22;42154;51.992;5.896;2023-09-18T07:18:35;20.50;99.90
56240;DHT22;42154;51.992;5.896;2023-09-18T07:21:01;20.60;99.90
56240;DHT22;42154;51.992;5.896;2023-09-18T07:23:27;20.60;99.90
56240;DHT22;42154;51.992;5.896;2023-09-18T07:25:53;20.60;99.90
56240;DHT22;42154;51.992;5.896;2023-09-18T07:28:19;20.60;99.90
56240;DHT22;42154;51.992;5.896;2023-09-18T07:30:45;20.60;99.90
56240;DHT22;42154;51.992;5.896;2023-09-18T07:33:12;20.70;99.90
56240;DHT22;42154;51.992;5.896;2023-09-18T07:35:38;20.70;99.90
56240;DHT22;42154;51.992;5.896;2023-09-18T07:38:04;20.70;99.90
56240;DHT22;42154;51.992;5.896;2023-09-18T07:40:30;20.80;99.90
56240;DHT22;42154;51.992;5.896;2023-09-18T07:42:56;20.70;99.90
56240;DHT22;42154;51.992;5.896;2023-09-18T07:45:23;20.80;99.90
56240;DHT22;42154;51.992;5.896;2023-09-18T07:47:49;20.80;99.90
56240;DHT22;42154;51.992;5.896;2023-09-18T07:50:15;20.80;99.90
56240;DHT22;42154;51.992;5.896;2023-09-18T07:52:42;20.80;99.90
56240;DHT22;42154;51.992;5.896;2023-09-18T07:55:08;20.80;99.90
56240;DHT22;42154;51.992;5.896;2023-09-18T07:57:35;20.90;99.90
56240;DHT22;42154;51.992;5.896;2023-09-18T08:00:04;20.90;99.90
56240;DHT22;42154;51.992;5.896;2023-09-18T08:02:38;20.90;99.90
56240;DHT22;42154;51.992;5.896;2023-09-18T08:05:04;20.90;99.90
56240;DHT22;42154;51.992;5.896;2023-09-18T08:07:30;20.90;99.90
56240;DHT22;42154;51.992;5.896;2023-09-18T08:09:56;20.90;99.90
56240;DHT22;42154;51.992;5.896;2023-09-18T08:12:23;20.90;99.90
56240;DHT22;42154;51.992;5.896;2023-09-18T08:14:49;20.90;99.90
56240;DHT22;42154;51.992;5.896;2023-09-18T08:17:16;20.90;99.90
56240;DHT22;42154;51.992;5.896;2023-09-18T08:19:42;20.90;99.90
56240;DHT22;42154;51.992;5.896;2023-09-18T08:22:10;21.00;99.90
56240;DHT22;42154;51.992;5.896;2023-09-18T08:24:40;21.00;99.90
56240;DHT22;42154;51.992;5.896;2023-09-18T08:27:06;21.10;99.90
56240;DHT22;42154;51.992;5.896;2023-09-18T08:29:32;21.10;99.90
56240;DHT22;42154;51.992;5.896;2023-09-18T08:31:58;21.20;99.90
56240;DHT22;42154;51.992;5.896;2023-09-18T08:34:24;21.20;99.90
56240;DHT22;42154;51.992;5.896;2023-09-18T08:36:49;21.30;99.90
56240;DHT22;42154;51.992;5.896;2023-09-18T08:39:15;21.30;99.90
56240;DHT22;42154;51.992;5.896;2023-09-18T08:41:43;21.30;99.90
56240;DHT22;42154;51.992;5.896;2023-09-18T08:44:09;21.30;99.90
56240;DHT22;42154;51.992;5.896;2023-09-18T08:46:37;21.40;99.90
56240;DHT22;42154;51.992;5.896;2023-09-18T08:49:03;21.50;99.90
56240;DHT22;42154;51.992;5.896;2023-09-18T08:51:29;21.60;99.90
56240;DHT22;42154;51.992;5.896;2023-09-18T08:53:56;21.70;99.90
56240;DHT22;42154;51.992;5.896;2023-09-18T08:56:22;21.80;99.90
56240;DHT22;42154;51.992;5.896;2023-09-18T08:58:49;21.80;99.90
56240;DHT22;42154;51.992;5.896;2023-09-18T09:01:15;21.70;99.90
56240;DHT22;42154;51.992;5.896;2023-09-18T09:03:42;21.70;99.90
56240;DHT22;42154;51.992;5.896;2023-09-18T09:06:09;21.70;99.90
56240;DHT22;42154;51.992;5.896;2023-09-18T09:08:36;21.70;99.90
56240;DHT22;42154;51.992;5.896;2023-09-18T09:11:03;21.70;99.90
56240;DHT22;42154;51.992;5.896;2023-09-18T09:13:29;21.70;99.90
56240;DHT22;42154;51.992;5.896;2023-09-18T09:15:56;21.80;99.90
56240;DHT22;42154;51.992;5.896;2023-09-18T09:18:27;21.80;99.90
56240;DHT22;42154;51.992;5.896;2023-09-18T09:21:00;21.80;99.90
56240;DHT22;42154;51.992;5.896;2023-09-18T09:23:29;21.80;99.90
56240;DHT22;42154;51.992;5.896;2023-09-18T09:26:12;21.80;99.90
56240;DHT22;42154;51.992;5.896;2023-09-18T09:28:38;21.90;99.90
56240;DHT22;42154;51.992;5.896;2023-09-18T09:31:04;21.90;99.90
56240;DHT22;42154;51.992;5.896;2023-09-18T09:33:31;21.90;99.90
56240;DHT22;42154;51.992;5.896;2023-09-18T09:35:57;21.90;99.90
56240;DHT22;42154;51.992;5.896;2023-09-18T09:38:31;22.00;99.90
56240;DHT22;42154;51.992;5.896;2023-09-18T09:41:02;22.30;99.90
56240;DHT22;42154;51.992;5.896;2023-09-18T09:43:31;22.40;99.90
56240;DHT22;42154;51.992;5.896;2023-09-18T09:46:01;22.50;99.90
56240;DHT22;42154;51.992;5.896;2023-09-18T09:48:27;22.50;99.90
56240;DHT22;42154;51.992;5.896;2023-09-18T09:51:00;22.40;99.90
56240;DHT22;42154;51.992;5.896;2023-09-18T09:53:45;22.40;99.90
56240;DHT22;42154;51.992;5.896;2023-09-18T09:56:16;22.50;99.90
56240;DHT22;42154;51.992;5.896;2023-09-18T09:59:01;22.60;99.90
56240;DHT22;42154;51.992;5.896;2023-09-18T10:01:27;22.70;99.90
56240;DHT22;42154;51.992;5.896;2023-09-18T10:03:55;22.70;99.90
56240;DHT22;42154;51.992;5.896;2023-09-18T10:06:22;22.60;99.90
56240;DHT22;42154;51.992;5.896;2023-09-18T10:08:48;22.60;99.90
56240;DHT22;42154;51.992;5.896;2023-09-18T10:11:15;22.60;99.90
56240;DHT22;42154;51.992;5.896;2023-09-18T10:13:55;22.60;99.90
56240;DHT22;42154;51.992;5.896;2023-09-18T10:16:23;22.60;99.90
56240;DHT22;42154;51.992;5.896;2023-09-18T10:19:17;22.60;99.90
56240;DHT22;42154;51.992;5.896;2023-09-18T10:21:57;22.70;99.90
56240;DHT22;42154;51.992;5.896;2023-09-18T10:24:35;22.70;99.90
56240;DHT22;42154;51.992;5.896;2023-09-18T10:27:05;22.70;99.90
56240;DHT22;42154;51.992;5.896;2023-09-18T10:29:33;22.70;99.90
56240;DHT22;42154;51.992;5.896;2023-09-18T10:32:06;22.70;99.90
56240;DHT22;42154;51.992;5.896;2023-09-18T10:34:35;22.60;99.90
56240;DHT22;42154;51.992;5.896;2023-09-18T10:37:03;22.50;99.90
56240;DHT22;42154;51.992;5.896;2023-09-18T10:39:37;22.60;99.90
56240;DHT22;42154;51.992;5.896;2023-09-18T10:42:07;22.70;99.90
56240;DHT22;42154;51.992;5.896;2023-09-18T10:44:34;22.90;99.90
56240;DHT22;42154;51.992;5.896;2023-09-18T10:47:02;23.00;99.90
56240;DHT22;42154;51.992;5.896;2023-09-18T10:49:31;23.00;99.90
56240;DHT22;42154;51.992;5.896;2023-09-18T10:51:57;23.00;99.90
56240;DHT22;42154;51.992;5.896;2023-09-18T10:54:25;22.90;99.90
56240;DHT22;42154;51.992;5.896;2023-09-18T10:56:52;22.80;99.90
56240;DHT22;42154;51.992;5.896;2023-09-18T10:59:18;22.70;99.90
56240;DHT22;42154;51.992;5.896;2023-09-18T11:01:46;22.70;99.90
56240;DHT22;42154;51.992;5.896;2023-09-18T11:04:17;22.70;99.90
56240;DHT22;42154;51.992;5.896;2023-09-18T11:09:25;22.80;99.90
56240;DHT22;42154;51.992;5.896;2023-09-18T11:11:53;22.70;99.90
56240;DHT22;42154;51.992;5.896;2023-09-18T11:14:22;22.80;99.90
56240;DHT22;42154;51.992;5.896;2023-09-18T11:16:49;22.80;99.90
56240;DHT22;42154;51.992;5.896;2023-09-18T11:19:18;22.80;99.90
56240;DHT22;42154;51.992;5.896;2023-09-18T11:21:46;22.80;99.90
56240;DHT22;42154;51.992;5.896;2023-09-18T11:24:17;22.80;99.90
56240;DHT22;42154;51.992;5.896;2023-09-18T11:26:45;22.70;99.90
56240;DHT22;42154;51.992;5.896;2023-09-18T11:29:13;22.70;99.90
56240;DHT22;42154;51.992;5.896;2023-09-18T11:31:50;22.70;99.90
56240;DHT22;42154;51.992;5.896;2023-09-18T11:34:25;22.60;99.90
56240;DHT22;42154;51.992;5.896;2023-09-18T11:36:58;22.60;99.90
56240;DHT22;42154;51.992;5.896;2023-09-18T11:39:39;22.60;99.90
56240;DHT22;42154;51.992;5.896;2023-09-18T11:42:12;22.50;99.90
56240;DHT22;42154;51.992;5.896;2023-09-18T11:44:42;22.50;99.90
56240;DHT22;42154;51.992;5.896;2023-09-18T11:47:10;22.40;99.90
56240;DHT22;42154;51.992;5.896;2023-09-18T11:49:52;22.30;99.90
56240;DHT22;42154;51.992;5.896;2023-09-18T11:52:24;22.20;99.90
56240;DHT22;42154;51.992;5.896;2023-09-18T11:54:50;22.30;99.90
56240;DHT22;42154;51.992;5.896;2023-09-18T11:57:18;22.40;99.90
56240;DHT22;42154;51.992;5.896;2023-09-18T11:59:45;22.60;99.90
56240;DHT22;42154;51.992;5.896;2023-09-18T12:02:26;22.90;99.90
56240;DHT22;42154;51.992;5.896;2023-09-18T12:04:54;23.10;99.90
56240;DHT22;42154;51.992;5.896;2023-09-18T12:07:20;23.30;99.90
56240;DHT22;42154;51.992;5.896;2023-09-18T12:09:46;23.40;99.90
56240;DHT22;42154;51.992;5.896;2023-09-18T12:12:12;23.50;99.90
56240;DHT22;42154;51.992;5.896;2023-09-18T12:14:41;23.50;99.90
56240;DHT22;42154;51.992;5.896;2023-09-18T12:17:16;23.60;99.90
56240;DHT22;42154;51.992;5.896;2023-09-18T12:20:00;23.70;99.90
56240;DHT22;42154;51.992;5.896;2023-09-18T12:22:27;23.80;99.90
56240;DHT22;42154;51.992;5.896;2023-09-18T12:24:53;23.80;99.90
56240;DHT22;42154;51.992;5.896;2023-09-18T12:27:20;23.70;99.90
56240;DHT22;42154;51.992;5.896;2023-09-18T12:29:46;23.70;99.90
56240;DHT22;42154;51.992;5.896;2023-09-18T12:32:13;23.70;99.90
56240;DHT22;42154;51.992;5.896;2023-09-18T12:34:43;23.70;99.90
56240;DHT22;42154;51.992;5.896;2023-09-18T12:37:09;23.70;99.90
56240;DHT22;42154;51.992;5.896;2023-09-18T12:39:36;23.80;99.90
56240;DHT22;42154;51.992;5.896;2023-09-18T12:42:04;23.90;99.90
56240;DHT22;42154;51.992;5.896;2023-09-18T12:44:30;24.00;99.90
56240;DHT22;42154;51.992;5.896;2023-09-18T12:46:56;24.10;99.90
56240;DHT22;42154;51.992;5.896;2023-09-18T12:49:23;24.10;99.90
56240;DHT22;42154;51.992;5.896;2023-09-18T12:52:01;24.20;99.90
56240;DHT22;42154;51.992;5.896;2023-09-18T12:54:43;24.20;99.90
56240;DHT22;42154;51.992;5.896;2023-09-18T12:57:20;24.10;99.90
56240;DHT22;42154;51.992;5.896;2023-09-18T12:59:46;24.20;99.90
56240;DHT22;42154;51.992;5.896;2023-09-18T13:02:18;24.30;99.90
56240;DHT22;42154;51.992;5.896;2023-09-18T13:04:52;24.30;99.90
56240;DHT22;42154;51.992;5.896;2023-09-18T13:07:18;24.30;99.90
56240;DHT22;42154;51.992;5.896;2023-09-18T13:10:07;24.30;99.90
56240;DHT22;42154;51.992;5.896;2023-09-18T13:12:46;24.40;99.90
56240;DHT22;42154;51.992;5.896;2023-09-18T13:15:12;24.40;99.90
56240;DHT22;42154;51.992;5.896;2023-09-18T13:17:42;24.50;99.90
56240;DHT22;42154;51.992;5.896;2023-09-18T13:20:13;24.60;99.90
56240;DHT22;42154;51.992;5.896;2023-09-18T13:22:41;24.70;99.90
56240;DHT22;42154;51.992;5.896;2023-09-18T13:25:10;24.70;99.90
56240;DHT22;42154;51.992;5.896;2023-09-18T13:27:38;24.70;99.90
56240;DHT22;42154;51.992;5.896;2023-09-18T13:30:08;24.60;99.90
56240;DHT22;42154;51.992;5.896;2023-09-18T13:32:35;24.50;99.90
56240;DHT22;42154;51.992;5.896;2023-09-18T13:35:03;24.50;99.90
56240;DHT22;42154;51.992;5.896;2023-09-18T13:37:32;24.50;99.90
56240;DHT22;42154;51.992;5.896;2023-09-18T13:39:58;24.40;99.90
56240;DHT22;42154;51.992;5.896;2023-09-18T13:42:27;24.30;99.90
56240;DHT22;42154;51.992;5.896;2023-09-18T13:44:56;24.30;99.90
56240;DHT22;42154;51.992;5.896;2023-09-18T13:47:22;24.30;99.90
56240;DHT22;42154;51.992;5.896;2023-09-18T13:49:47;24.30;99.90
56240;DHT22;42154;51.992;5.896;2023-09-18T13:52:13;24.40;99.90
56240;DHT22;42154;51.992;5.896;2023-09-18T13:54:39;24.50;99.90
56240;DHT22;42154;51.992;5.896;2023-09-18T13:57:06;24.50;99.90
56240;DHT22;42154;51.992;5.896;2023-09-18T13:59:31;24.50;99.90
56240;DHT22;42154;51.992;5.896;2023-09-18T14:01:57;24.60;99.90
56240;DHT22;42154;51.992;5.896;2023-09-18T14:04:23;24.60;99.90
56240;DHT22;42154;51.992;5.896;2023-09-18T14:06:49;24.70;99.90
56240;DHT22;42154;51.992;5.896;2023-09-18T14:09:15;24.70;99.90
56240;DHT22;42154;51.992;5.896;2023-09-18T14:11:42;24.80;99.90
56240;DHT22;42154;51.992;5.896;2023-09-18T14:14:08;24.70;99.90
56240;DHT22;42154;51.992;5.896;2023-09-18T14:16:33;24.70;99.90
56240;DHT22;42154;51.992;5.896;2023-09-18T14:18:59;24.70;99.90
56240;DHT22;42154;51.992;5.896;2023-09-18T14:21:25;24.60;99.90
56240;DHT22;42154;51.992;5.896;2023-09-18T14:23:54;24.60;99.90
56240;DHT22;42154;51.992;5.896;2023-09-18T14:26:20;24.60;99.90
56240;DHT22;42154;51.992;5.896;2023-09-18T14:28:46;24.50;99.90
56240;DHT22;42154;51.992;5.896;2023-09-18T14:31:12;24.50;99.90
56240;DHT22;42154;51.992;5.896;2023-09-18T14:33:37;24.60;99.90
56240;DHT22;42154;51.992;5.896;2023-09-18T14:36:03;24.60;99.90
56240;DHT22;42154;51.992;5.896;2023-09-18T14:38:29;24.60;99.90
56240;DHT22;42154;51.992;5.896;2023-09-18T14:40:55;24.60;99.90
56240;DHT22;42154;51.992;5.896;2023-09-18T14:43:28;24.40;99.90
56240;DHT22;42154;51.992;5.896;2023-09-18T14:45:53;24.30;99.90
56240;DHT22;42154;51.992;5.896;2023-09-18T14:48:22;24.30;99.90
56240;DHT22;42154;51.992;5.896;2023-09-18T14:50:54;24.30;99.90
56240;DHT22;42154;51.992;5.896;2023-09-18T14:53:20;24.30;99.90
56240;DHT22;42154;51.992;5.896;2023-09-18T14:55:46;24.30;99.90
56240;DHT22;42154;51.992;5.896;2023-09-18T14:58:13;24.30;99.90
56240;DHT22;42154;51.992;5.896;2023-09-18T15:00:40;24.30;99.90
56240;DHT22;42154;51.992;5.896;2023-09-18T15:03:05;24.40;99.90
56240;DHT22;42154;51.992;5.896;2023-09-18T15:05:31;24.40;99.90
56240;DHT22;42154;51.992;5.896;2023-09-18T15:07:57;24.40;99.90
56240;DHT22;42154;51.992;5.896;2023-09-18T15:10:22;24.40;99.90
56240;DHT22;42154;51.992;5.896;2023-09-18T15:12:48;24.30;99.90
56240;DHT22;42154;51.992;5.896;2023-09-18T15:15:14;24.30;99.90
56240;DHT22;42154;51.992;5.896;2023-09-18T15:17:40;24.30;99.90
56240;DHT22;42154;51.992;5.896;2023-09-18T15:20:06;24.20;99.90
56240;DHT22;42154;51.992;5.896;2023-09-18T15:22:32;24.20;99.90
56240;DHT22;42154;51.992;5.896;2023-09-18T15:24:58;24.20;99.90
56240;DHT22;42154;51.992;5.896;2023-09-18T15:27:23;24.10;99.90
56240;DHT22;42154;51.992;5.896;2023-09-18T15:29:49;24.10;99.90
56240;DHT22;42154;51.992;5.896;2023-09-18T15:32:15;24.00;99.90
56240;DHT22;42154;51.992;5.896;2023-09-18T15:34:41;23.90;99.90
56240;DHT22;42154;51.992;5.896;2023-09-18T15:37:07;23.90;99.90
56240;DHT22;42154;51.992;5.896;2023-09-18T15:39:32;23.90;99.90
56240;DHT22;42154;51.992;5.896;2023-09-18T15:42:00;23.60;99.90